Timeline UpdatesTrip UpdatesNews PostsPvt PostsTravel TipsAdmin PostsConv PostsFollowed PostsChat RequestsBlog PostsPNR Posts

Disclaimer
Search
 
 
Mon Jul 28, 2014 21:58:19 ISTHomeTrainsΣChainsAtlasPNRForumGalleryNewsFAQTripsMembersLoginFeedback
No Recent News for this Train
Other Trains in the News **new
Latest...
T.No.57258 Kakinada –Tirupati Passenger which left Kakinada o­n 28/04/2013 is partially cancelled between Sri Kalahasti and Tirupati.
Mon Apr 29, 2013 (01:25PM)
⇐ Return Journey: Train# 57257

57258/Kakinada Port Tirupati Passenger

Jul 02 2013 (8:44PM)
Change Departure Station:
Change Arrival Station:
Post a Train Travel TipPost a Train Travel Tip **new
Post a Comment/Question/Picture/VideoPost a Comment/Question/Picture/Video
Pantry/Catering
✕ NO Pantry Car
✕ NO Catering
RSA - Rake Sharing
57273/74, TPTY-UBL Intercity Passenger
Rake/Coach Composition
LOCO-SLR-GEN-GEN-GEN-S1-S2-GEN-GEN-GEN-GEN-GEN-GEN-GEN-GEN-GEN-SLR
Loco
WAM-4/WAG-5/WAG-7 : COA_BZA WDM2/WDM 3A/WDG 3A : BZA_TPTY
News    PNR    Forum    Time-Table    Availability    Fare Chart    Map    Arr/Dep History    Trips    Gallery    ΣChains    X/O    Timeline    
Travel Time: 1h 11m    7 halts    Distance: 41 km    Avg Speed: 34 km/hr
Type: Passenger
Zone: SCR/South Central
Departs @ 07:00 (Avg 7m late)
Platform# ???
SMTWTFS
Kakinada Port/COA 
Arrives @ 08:11 (Avg 25m late)
Platform# ???
SMTWTFS
Anaparti/APT 

7 halts. 8 intermediate Stations between Kakinada Port and Anaparti

Show ALL intermediate Stations  Show Old Time-Table

#CodeStation NameX/OArrivesAvgDepartsAvgHaltPFDay#KmSpeedElevZoneAddress
1COA»Kakinada Port (3)»  -07:00+7--10.0125mSCRKakinada, Andhra Pradesh
2CCTKakinada Town Junction (3)  07:08+507:10+52m111.63711mSCREast Godavari, Andhra Pradesh
3SLOSamalkot Junction (3)  07:30+1607:32+202m3114.15518mSCRSamalkot, Andhra Pradesh
4GDPTGudapartiX  07:37+1907:38+191m--118.65421mSCRVetlapalem, Andhra Pradesh
5MPUMedapaduO  07:43+2307:44+271m--123.12920mSCRMedapadu, Andhra Pradesh
6PBDPeddabrahmadevam  07:49+1707:50+171m--125.54916mSCRPedabramadvam, Andhra Pradesh
7BVLBikkavolu  07:57+2707:58+281m--131.23316mSCREast Godavari District, Andhra Pradesh
8BBPMBalabhadrapuramX  08:04+1808:05+181m--134.66023mSCRBalabhadhrapuram, Andhra Pradesh
9APT•Anaparti (3)•X  08:11+2508:12+271m--140.63821mSCREast Godavari District, Andhra Pradesh
10DWPDwarapudi (3)XO  08:18+2708:19+411m--144.44320mSCREast Godavari District, Andhra Pradesh
11KSVMKesavaram  08:25+3108:26+311m--148.76716mSCRKesavaram, Andhra Pradesh
12KYMKadiyam (1)XO  08:31+4408:32+571m1154.31615mSCREast Godavari, Andhra Pradesh
13RJYRajahmundry (3)XO  09:10+3509:15+425m1164.32623mSCRRajahmundry ph.no. 0883-2420541, Andhra Pradesh
14GVNGodavariXO  09:22+5109:23+1:081m--167.33224mSCRRajahmundry, Andhra Pradesh
15KVRKovvur (3)  09:32+1:1009:33+1:181m--172.16125mSCRWest Godavari, Andhra Pradesh
16PSDAPasivedala (2)X  09:36+1:0009:37+1:001m--175.23022mSCRWest Godavari District, Andhra Pradesh
17CUChagallu  09:44+1:1709:45+1:201m--178.75218mSCRWest Godavari, Andhra Pradesh
18BMGMBrahmanagudem (2)X  09:50+1:0809:51+1:081m--183.04118mSCRNidadavolu, Andhra Pradesh
19NDDNidadavolu Junction (3)  09:56+1:1309:57+1:161m--186.45720mSCRNidadavolu jtn ph.no. 08813-210325, Andhra Pradesh
20MRPLMarampalli  10:05+1:1710:06+1:171m--194.12817mSCRMarampalli Rd, Andhra Pradesh
21NBMNavabpalem  10:13+1:2810:14+1:321m--197.36816mSCRWest Godavari District, Andhra Pradesh
22TDDTadepalligudem (3)X  10:22+1:2910:23+1:301m--1106.44518mSCRTadepalligudem, Andhra Pradesh
23BPYBadampudi  10:31+1:4010:32+1:461m--1112.45420mSCRBadampudi, Andhra Pradesh
24VGTUnguturuX  10:38+1:3110:39+1:311m--1117.82917mSCRUnguturu, Andhra Pradesh
25CELChebrolX  10:45+1:4510:46+1:511m--1120.74118mSCRWest Godavari District, Andhra Pradesh
26KKRMKaikaram  10:51+1:3710:52+1:371m--1124.25219mSCRKaikaram, Andhra Pradesh
27PUAPullaX  10:57+1:5110:58+1:581m--1128.55015mSCRPulla, Andhra Pradesh
28BMDBhimadolu (3)  11:06+2:0011:07+2:011m--1135.24814mSCRBhimadolu, Andhra Pradesh
29STPTSitampet  11:14+1:3911:15+1:391m--1140.84420mSCREGK Rd, Andhra Pradesh
30DELDenduluru  11:20+2:0011:21+2:061m--1144.45821mSCRWest Godavari, Andhra Pradesh
31EEEluru (3)  11:31+1:5711:32+2:001m--1154.21819mSCREluru Ph.no. 08812 226401., Andhra Pradesh
32PRHPowerpet (2)  11:37+2:1411:38+2:141m--1155.66020mSCREluru, Andhra Pradesh
33VATVatlurX  11:45+2:1211:46+2:191m--1162.64916mSCREluru, Andhra Pradesh
34NZDNuzvid (3)X  11:58+2:1911:59+2:221m--1172.46528mSCRHanuman Junction, Andhra Pradesh
35VRVLViravalli  12:05+2:3512:06+2:351m--1178.93821mSCRViravalli, Andhra Pradesh
36TOUTelaprolu  12:11+2:2512:12+2:271m--1182.14720mSCRKrishna, Andhra Pradesh
37PAVPPedda Avutapale  12:21+2:2712:22+2:291m--1189.11925mSCRPedda Avutapalle, Andhra Pradesh
38GWMGannavaramX  12:37+2:2312:38+2:271m--1193.71724mSCRGannavaram, Andhra Pradesh
39MBDMustabadaXO  13:02+2:1813:03+2:231m--1200.7620mSCRKrishna, Andhra Pradesh
40BZAVijayawada Junction (10)XO  15:10+5415:40+5630m--1213.62324mSCRVijayawada 520001, Andhra Pradesh
41KCCKrishna Canal Junction (6)X  15:52+1:0715:53+1:171m--1218.24021mSCRTadepalli, Andhra Pradesh
42KAQKolanukonda (1)X  15:58+1:3615:59+1:361m11221.64622mSCRNational Highway 5, Andhra Pradesh
43PVDPeddavadiapudi (3)  16:04+1:1716:05+1:191m--1225.44620mSCRKL University to NH 5, Andhra Pradesh
44CLVRChiluvur  16:10+1:3816:11+1:381m--1229.38720mSCRChiluvuru, Andhra Pradesh
45DIGDuggirala (3)X  16:15+1:2216:16+1:281m--1235.14416mSCRDuggirala, Andhra Pradesh
46KLXKolakalurX  16:21+1:4516:22+1:451m--1238.85215mSCRNandivelugu Rd, Andhra Pradesh
47TELTenali Junction (5)O  16:29+1:2316:30+1:301m--1244.86316mSCRTel: 08644-227834, Andhra Pradesh
48TSRTsunduru (3)O  16:41+1:4016:42+1:421m--1256.43612mSCRTsunduru, Andhra Pradesh
49MDKUModukuru (2)X  16:48+1:4916:49+1:491m--1260.05210mSCRModukuru, Andhra Pradesh
50NDONidubrolu (3)  16:57+1:4216:58+1:471m--1266.9389mSCRNidubrolu, Andhra Pradesh
51MCVMMachavaram  17:06+1:4917:07+1:491m--1271.9587mSCRMachavaram, Andhra Pradesh
52APLAppikatla (2)  17:14+1:5117:15+1:521m--1278.7587mSCRGBC Rd, Andhra Pradesh
53BPPBapatla (3)X  17:24+1:3817:25+1:451m--1287.45910mSCRBapatla, Andhra Pradesh
54SPFStuartpuram  17:32+2:0417:33+2:041m--1294.3489mSCRBapatla West Rural, Andhra Pradesh
55IPPMIpurupalem  17:38+1:4817:39+1:481m--1298.3328mSCRIpurupalem, Andhra Pradesh
56CLXChirala (4)  17:47+1:5117:48+1:581m--1302.5328mSCRChirala, Andhra Pradesh
57JAQJandrapeta (2)  17:54+2:0317:55+2:031m--1305.7479mSCRChirala, Andhra Pradesh
58VTMVetapalem (3)  18:01+2:1518:02+2:241m--1310.4538mSCRVetapalem, Andhra Pradesh
59KPLLKottapandillapalli (2)X  18:06+2:0418:07+2:041m--1313.9518mSCRNH 214A, Andhra Pradesh
60KVDUKadavakuduru (2)  18:12+2:0618:13+2:061m--1318.1478mSCRKadavakuduru, Andhra Pradesh
61CJMChinnaganjam (3)X  18:19+2:2818:20+2:301m--1322.8569mSCRChinna Ganjam, Andhra Pradesh
62UGDUppugunduru (2)  18:27+2:3218:28+2:341m--1329.3525mSCRUppugundur Machavaram Rd, Andhra Pradesh
63RPRLRaparla Halt (2)  18:33+2:1618:34+2:161m--1333.6399mSCRNH 214A, Andhra Pradesh
64ANBAmmanabrolu (3)XO  18:39+2:3518:40+2:351m--1336.94216mSCRAmmanabrolu, Andhra Pradesh
65KRVKaravadi (2)X  18:49+2:2918:50+2:311m--1343.22711mSCRKaravadi, Andhra Pradesh
66OGLOngole (3)X  19:09+1:4819:10+1:501m31351.86212mSCROngole, Andhra Pradesh
67SDMSurareddipalem (3)  19:20+2:3619:21+2:371m--1362.2559mSCRSurareddy Palem, Andhra Pradesh
68TNRTanguturu (2)X  19:30+2:3819:31+2:411m--1370.56410mSCRTanguturu, Andhra Pradesh
69SKMSingarayakonda (3)  19:40+2:2419:41+2:251m31380.15326mSCRSingarayakonda, Andhra Pradesh
70UPDUlavapadu (2)X  19:52+2:4119:53+2:431m--1389.75513mSCRUlavapadu, Andhra Pradesh
71TTUTettu (2)X  20:08+3:5420:09+3:541m--1403.66624mSCRNational Highway 5, Andhra Pradesh
72KVZKavali (4)X  20:22+1:2320:23+1:231m21417.86721mSCRKavali, Andhra Pradesh
73SVPMSri Venkateswarapalem (2)XO  20:34+2:3120:35+2:331m--1430.11322mSCRNational Highway 5, Andhra Pradesh
74BTTRBitragunta (2)X  20:54+2:3320:55+2:351m21434.35715mSCRBitragunta, Andhra Pradesh
75KJJKodavaluru (2)X  21:19+2:3421:20+2:341m--1457.15017mSCRNational Highway 5, Andhra Pradesh
76PGUPadugupadu (3)X  21:29+2:3421:30+2:341m31464.62721mSCRKovur, Andhra Pradesh
77NLRNellore (4)  21:39+1:3121:40+1:311m31468.62921mSCRNellore, Andhra Pradesh
78NLSNellore South (2)X  21:44+2:2721:45+2:271m21470.53622mSCRNellore, Andhra Pradesh
79VDEVedayapalem (2)X  21:54+2:3121:55+2:311m11475.96227mSCRNellore, Andhra Pradesh
80VKTVenkatachalam (3)X  22:04+3:2622:05+3:261m31485.11326mSCRVenkatachelam, Andhra Pradesh
81GDRGudur Junction (3)  23:50+2:0700:15+1:5325m31507.16519mSCRGudur, Andhra Pradesh
82KQAKondagunta (1)  00:24+1:5200:25+1:521m12516.86353mSCRNellore, Andhra Pradesh
83VDDVendodu (2)  00:34+1:5200:35+1:541m--2526.36455mSCRNellore, Andhra Pradesh
84NDZNidigallu (2)  00:43+1:5600:44+1:561m--2534.98055mSCRSiddavaram, Andhra Pradesh
85VKIVenkatagiri (3)  00:50+2:0000:51+2:021m22542.85577mSCRNellore District, Andhra Pradesh
86YALYataluru  00:58-00:59-1m--2549.25978mSCRCoastal Andhra Region, Andhra Pradesh
87YLKYellakaru (1)  01:05+2:0201:06+2:031m12555.16673mSCRCoastal Andhra Region, Andhra Pradesh
88KHTSri Kalahasti (2)X  01:17+2:0001:18+2:021m12567.36768mSCRChittoor District, Andhra Pradesh
89YPDYerpedu (2)X  01:30+2:2101:31+2:211m--2580.62080mSCRChittoor, Andhra Pradesh
90RURenigunta Junction (5)  02:00+1:5902:10+1:5910m--2590.515113mSCRChittoor District, Andhra Pradesh
91TPTYTirupati Main (5)  02:50+1:10---2600.3-150mSCRChittoor Distt, Andhra Pradesh
Scroll to Top
Scroll to Bottom